Sunflower Gold — JD2460 — position and weather

sailwx.info

Track history (hours):
 
Tides and Currents Weather Stations Pressure Air Temp Water Temp Dewpoint Dewpoint Depression Visibility Wind Speed Wind Dir Waves Ship Positions

Sunflower Gold

Last reported at 2014-Jul-31 08:28 UTC. Time now 2014-Jul-31 09:26 UTC.
Position N 34°42' E 135°17'.

Length 166 m; draft 5.8 m.

Type: Passenger vessel. MMSI: 431000331.

Date/timePositionNaut miles runAvg speedWind from/ knotsBaromVisibWave heightAir tempDewpointWater temp
2014-Jul-31 08:28N 34°42' E 135°17'0 0.0
2014-Jul-31 07:28N 34°42' E 135°17'0 0.0
2014-Jul-31 06:28N 34°42' E 135°17'0 0.0
2014-Jul-31 05:28N 34°42' E 135°17'0 0.0
2014-Jul-31 04:28N 34°42' E 135°17'0 0.0
2014-Jul-31 03:28N 34°42' E 135°17'0 0.0
2014-Jul-31 02:22N 34°42' E 135°17'0 0.0
2014-Jul-31 01:22N 34°42' E 135°17'0 0.0
2014-Jul-31 00:16N 34°42' E 135°17'0 0.0
2014-Jul-30 23:28N 34°42' E 135°17'0 0.0
2014-Jul-30 22:10N 34°42' E 135°17'0 0.0
2014-Jul-30 21:32N 34°42' E 135°17'1110.9
2014-Jul-30 20:33N 34°34' E 135°08'1818.2
2014-Jul-30 19:33N 34°32' E 134°46'10818.0
2014-Jul-30 13:33N 33°57' E 132°42'2422.1
2014-Jul-30 12:27N 33°42' E 132°19'28 1.5
2014-Jul-29 17:29N 34°00' E 132°44'11017.9
2014-Jul-29 11:20N 34°34' E 134°51'1721.8
2014-Jul-29 10:33N 34°36' E 135°11'7 6.5
2014-Jul-29 09:28N 34°42' E 135°17'0 0.0
2014-Jul-29 08:28N 34°42' E 135°17'0 0.0
2014-Jul-29 07:28N 34°42' E 135°17'0 0.0
2014-Jul-29 06:28N 34°42' E 135°17'0 0.0
2014-Jul-29 05:28N 34°42' E 135°17'0 0.0
2014-Jul-29 04:16N 34°42' E 135°17'0 0.0
2014-Jul-29 03:28N 34°42' E 135°17'0 0.0
2014-Jul-29 02:28N 34°42' E 135°17'0 0.0
2014-Jul-29 01:28N 34°42' E 135°17'0 0.0
2014-Jul-29 00:28N 34°42' E 135°17'0 0.0
2014-Jul-28 23:16N 34°42' E 135°17'0 0.0
2014-Jul-28 22:28N 34°42' E 135°17'0 0.1
2014-Jul-28 21:33N 34°42' E 135°17'1111.2
2014-Jul-28 20:34N 34°34' E 135°07'2419.7
2014-Jul-28 19:19N 34°28' E 134°38'10017.3
2014-Jul-28 13:33N 33°58' E 132°43'2623.2
2014-Jul-28 12:25N 33°41' E 132°18'30 1.6
2014-Jul-27 17:29N 34°01' E 132°45'10918.0
2014-Jul-27 11:24N 34°35' E 134°51'1720.3
2014-Jul-27 10:33N 34°36' E 135°12'7 6.6
2014-Jul-27 09:31N 34°42' E 135°17'0 0.0
2014-Jul-27 08:31N 34°42' E 135°17'0 0.0
2014-Jul-27 07:31N 34°42' E 135°17'0 0.0
2014-Jul-27 06:31N 34°42' E 135°17'0 0.0
2014-Jul-27 05:31N 34°42' E 135°17'0 0.0
2014-Jul-27 04:31N 34°42' E 135°17'0 0.0
2014-Jul-27 03:25N 34°42' E 135°17'0 0.0
2014-Jul-27 02:31N 34°42' E 135°17'0 0.0
2014-Jul-27 01:25N 34°42' E 135°17'0 0.0
2014-Jul-27 00:31N 34°42' E 135°17'0 0.0
2014-Jul-26 23:25N 34°42' E 135°17'2 2.0
2014-Jul-26 22:33N 34°41' E 135°18'1515.2
2014-Jul-26 21:33N 34°37' E 135°00'11816.6
2014-Jul-26 14:29N 34°00' E 132°45'2 0.1
2014-Jul-25 18:23N 34°02' E 132°46'10717.7
2014-Jul-25 12:20N 34°34' E 134°50'1519.8
2014-Jul-25 11:33N 34°36' E 135°08'9 9.2
2014-Jul-25 10:33N 34°42' E 135°17'0 0.0
2014-Jul-25 09:33N 34°42' E 135°17'0 0.0
2014-Jul-25 08:33N 34°42' E 135°17'0 0.0
2014-Jul-25 07:27N 34°42' E 135°17'0 0.0
2014-Jul-25 06:33N 34°42' E 135°17'0 0.0
2014-Jul-25 05:33N 34°42' E 135°17'0 0.0
2014-Jul-25 04:33N 34°42' E 135°17'0 0.0
2014-Jul-25 03:27N 34°42' E 135°17'0 0.0
2014-Jul-25 02:33N 34°42' E 135°17'0 0.0
2014-Jul-25 01:33N 34°42' E 135°17'0 0.0
2014-Jul-25 00:33N 34°42' E 135°17'0 0.0
2014-Jul-24 23:33N 34°42' E 135°17'0 0.0
2014-Jul-24 22:33N 34°42' E 135°17'0 0.0
2014-Jul-24 21:33N 34°42' E 135°17'1111.5
2014-Jul-24 20:33N 34°35' E 135°06'1818.1
2014-Jul-24 19:33N 34°31' E 134°44'11218.2
2014-Jul-24 13:24N 33°53' E 132°37'1921.4
2014-Jul-24 12:32N 33°41' E 132°19'29 1.5
2014-Jul-23 17:30N 34°01' E 132°45'10917.9
2014-Jul-23 11:25N 34°34' E 134°51'1820.9
2014-Jul-23 10:33N 34°36' E 135°13'7 6.0
2014-Jul-23 09:28N 34°42' E 135°17'0 0.0
2014-Jul-23 08:28N 34°42' E 135°17'0 0.0
2014-Jul-23 07:28N 34°42' E 135°17'0 0.0
2014-Jul-23 06:28N 34°42' E 135°17'0 0.0
2014-Jul-23 05:28N 34°42' E 135°17'0 0.0
2014-Jul-23 04:28N 34°42' E 135°17'0 0.0
2014-Jul-23 03:22N 34°42' E 135°17'0 0.0
2014-Jul-23 02:28N 34°42' E 135°17'0 0.0
2014-Jul-23 01:28N 34°42' E 135°17'0 0.0
2014-Jul-23 00:28N 34°42' E 135°17'0 0.0
2014-Jul-22 23:28N 34°42' E 135°17'0 0.0
2014-Jul-22 22:28N 34°42' E 135°17'0 0.0
2014-Jul-22 21:33N 34°42' E 135°17'1313.0
2014-Jul-22 20:33N 34°36' E 135°03'13017.8
2014-Jul-22 13:15N 33°51' E 132°35'121 4.7
2014-Jul-21 11:22N 34°35' E 134°52'1620.4
2014-Jul-21 10:33N 34°36' E 135°12'7 6.6
2014-Jul-21 09:31N 34°42' E 135°17'  
Track history (hours):
 
Tides and Currents Weather Stations Pressure Air Temp Water Temp Dewpoint Dewpoint Depression Visibility Wind Speed Wind Dir Waves Ship Positions

Sunflower Gold

Last reported at 2014-Jul-31 08:28 UTC. Time now 2014-Jul-31 09:26 UTC.
Position N 34°42' E 135°17'.

Length 166 m; draft 5.8 m.

Type: Passenger vessel. MMSI: 431000331.

Date/timePositionNaut miles runAvg speedWind from/ knotsBaromVisibWave heightAir tempDewpointWater temp
2014-Jul-31 08:28N 34°42' E 135°17'0 0.0
2014-Jul-31 07:28N 34°42' E 135°17'0 0.0
2014-Jul-31 06:28N 34°42' E 135°17'0 0.0
2014-Jul-31 05:28N 34°42' E 135°17'0 0.0
2014-Jul-31 04:28N 34°42' E 135°17'0 0.0
2014-Jul-31 03:28N 34°42' E 135°17'0 0.0
2014-Jul-31 02:22N 34°42' E 135°17'0 0.0
2014-Jul-31 01:22N 34°42' E 135°17'0 0.0
2014-Jul-31 00:16N 34°42' E 135°17'0 0.0
2014-Jul-30 23:28N 34°42' E 135°17'0 0.0
2014-Jul-30 22:10N 34°42' E 135°17'0 0.0
2014-Jul-30 21:32N 34°42' E 135°17'1110.9
2014-Jul-30 20:33N 34°34' E 135°08'1818.2
2014-Jul-30 19:33N 34°32' E 134°46'10818.0
2014-Jul-30 13:33N 33°57' E 132°42'2422.1
2014-Jul-30 12:27N 33°42' E 132°19'28 1.5
2014-Jul-29 17:29N 34°00' E 132°44'11017.9
2014-Jul-29 11:20N 34°34' E 134°51'1721.8
2014-Jul-29 10:33N 34°36' E 135°11'7 6.5
2014-Jul-29 09:28N 34°42' E 135°17'0 0.0
2014-Jul-29 08:28N 34°42' E 135°17'0 0.0
2014-Jul-29 07:28N 34°42' E 135°17'0 0.0
2014-Jul-29 06:28N 34°42' E 135°17'0 0.0
2014-Jul-29 05:28N 34°42' E 135°17'0 0.0
2014-Jul-29 04:16N 34°42' E 135°17'0 0.0
2014-Jul-29 03:28N 34°42' E 135°17'0 0.0
2014-Jul-29 02:28N 34°42' E 135°17'0 0.0
2014-Jul-29 01:28N 34°42' E 135°17'0 0.0
2014-Jul-29 00:28N 34°42' E 135°17'0 0.0
2014-Jul-28 23:16N 34°42' E 135°17'0 0.0
2014-Jul-28 22:28N 34°42' E 135°17'0 0.1
2014-Jul-28 21:33N 34°42' E 135°17'1111.2
2014-Jul-28 20:34N 34°34' E 135°07'2419.7
2014-Jul-28 19:19N 34°28' E 134°38'10017.3
2014-Jul-28 13:33N 33°58' E 132°43'2623.2
2014-Jul-28 12:25N 33°41' E 132°18'30 1.6
2014-Jul-27 17:29N 34°01' E 132°45'10918.0
2014-Jul-27 11:24N 34°35' E 134°51'1720.3
2014-Jul-27 10:33N 34°36' E 135°12'7 6.6
2014-Jul-27 09:31N 34°42' E 135°17'0 0.0
2014-Jul-27 08:31N 34°42' E 135°17'0 0.0
2014-Jul-27 07:31N 34°42' E 135°17'0 0.0
2014-Jul-27 06:31N 34°42' E 135°17'0 0.0
2014-Jul-27 05:31N 34°42' E 135°17'0 0.0
2014-Jul-27 04:31N 34°42' E 135°17'0 0.0
2014-Jul-27 03:25N 34°42' E 135°17'0 0.0
2014-Jul-27 02:31N 34°42' E 135°17'0 0.0
2014-Jul-27 01:25N 34°42' E 135°17'0 0.0
2014-Jul-27 00:31N 34°42' E 135°17'0 0.0
2014-Jul-26 23:25N 34°42' E 135°17'2 2.0
2014-Jul-26 22:33N 34°41' E 135°18'1515.2
2014-Jul-26 21:33N 34°37' E 135°00'11816.6
2014-Jul-26 14:29N 34°00' E 132°45'2 0.1
2014-Jul-25 18:23N 34°02' E 132°46'10717.7
2014-Jul-25 12:20N 34°34' E 134°50'1519.8
2014-Jul-25 11:33N 34°36' E 135°08'9 9.2
2014-Jul-25 10:33N 34°42' E 135°17'0 0.0
2014-Jul-25 09:33N 34°42' E 135°17'0 0.0
2014-Jul-25 08:33N 34°42' E 135°17'0 0.0
2014-Jul-25 07:27N 34°42' E 135°17'0 0.0
2014-Jul-25 06:33N 34°42' E 135°17'0 0.0
2014-Jul-25 05:33N 34°42' E 135°17'0 0.0
2014-Jul-25 04:33N 34°42' E 135°17'0 0.0
2014-Jul-25 03:27N 34°42' E 135°17'0 0.0
2014-Jul-25 02:33N 34°42' E 135°17'0 0.0
2014-Jul-25 01:33N 34°42' E 135°17'0 0.0
2014-Jul-25 00:33N 34°42' E 135°17'0 0.0
2014-Jul-24 23:33N 34°42' E 135°17'0 0.0
2014-Jul-24 22:33N 34°42' E 135°17'0 0.0
2014-Jul-24 21:33N 34°42' E 135°17'1111.5
2014-Jul-24 20:33N 34°35' E 135°06'1818.1
2014-Jul-24 19:33N 34°31' E 134°44'11218.2
2014-Jul-24 13:24N 33°53' E 132°37'1921.4
2014-Jul-24 12:32N 33°41' E 132°19'29 1.5
2014-Jul-23 17:30N 34°01' E 132°45'10917.9
2014-Jul-23 11:25N 34°34' E 134°51'1820.9
2014-Jul-23 10:33N 34°36' E 135°13'7 6.0
2014-Jul-23 09:28N 34°42' E 135°17'0 0.0
2014-Jul-23 08:28N 34°42' E 135°17'0 0.0
2014-Jul-23 07:28N 34°42' E 135°17'0 0.0
2014-Jul-23 06:28N 34°42' E 135°17'0 0.0
2014-Jul-23 05:28N 34°42' E 135°17'0 0.0
2014-Jul-23 04:28N 34°42' E 135°17'0 0.0
2014-Jul-23 03:22N 34°42' E 135°17'0 0.0
2014-Jul-23 02:28N 34°42' E 135°17'0 0.0
2014-Jul-23 01:28N 34°42' E 135°17'0 0.0
2014-Jul-23 00:28N 34°42' E 135°17'0 0.0
2014-Jul-22 23:28N 34°42' E 135°17'0 0.0
2014-Jul-22 22:28N 34°42' E 135°17'0 0.0
2014-Jul-22 21:33N 34°42' E 135°17'1313.0
2014-Jul-22 20:33N 34°36' E 135°03'13017.8
2014-Jul-22 13:15N 33°51' E 132°35'121 4.7
2014-Jul-21 11:22N 34°35' E 134°52'1620.4
2014-Jul-21 10:33N 34°36' E 135°12'7 6.6
2014-Jul-21 09:31N 34°42' E 135°17'  

Dump ship's entire track history